Time;durP1;ratioP1;P1;durP2;ratioP2;P2;SDS_P1;SDS_P2;PMS_P1;PMS_P2;Temp;Humidity;BMP_temperature;BMP_pressure;BME280_temperature;BME280_humidity;BME280_pressure;Samples;Min_cycle;Max_cycle;Signal;HPM_P1;HPM_P2
2021/10/07 00:00:05;;;;;;;24.80;9.30;;;;;;;;;;5031371;28;20029;-76
2021/10/07 00:02:31;;;;;;;31.88;9.52;;;;;;;;;;5031375;28;20465;-75
2021/10/07 00:04:56;;;;;;;26.40;9.80;;;;;;;;;;5030385;28;20032;-78
2021/10/07 00:07:22;;;;;;;25.10;9.98;;;;;;;;;;5029838;28;20444;-78
2021/10/07 00:09:48;;;;;;;22.05;7.90;;;;;;;;;;5031462;28;20018;-77
2021/10/07 00:12:14;;;;;;;23.77;8.38;;;;;;;;;;5030163;28;20049;-77
2021/10/07 00:14:42;;;;;;;21.17;8.70;;;;;;;;;;5031420;28;20056;-75
2021/10/07 00:17:08;;;;;;;13.00;5.75;;;;;;;;;;5031329;28;20060;-78
2021/10/07 00:19:35;;;;;;;14.23;6.88;;;;;;;;;;5029825;28;20060;-77
2021/10/07 00:22:01;;;;;;;20.67;6.68;;;;;;;;;;5030114;28;20029;-76
2021/10/07 00:24:26;;;;;;;16.25;7.65;;;;;;;;;;5030930;28;20026;-76
2021/10/07 00:26:52;;;;;;;16.55;6.63;;;;;;;;;;5030530;28;20064;-79
2021/10/07 00:32:09;;;;;;;15.55;6.95;;;;;;;;;;5031259;28;20068;-76
2021/10/07 00:37:23;;;;;;;18.52;7.45;;;;;;;;;;5030915;28;20607;-76
2021/10/07 00:39:48;;;;;;;17.67;6.32;;;;;;;;;;5030823;28;20037;-77
2021/10/07 00:42:16;;;;;;;18.70;8.02;;;;;;;;;;5029732;28;20049;-78
2021/10/07 00:44:44;;;;;;;20.83;7.18;;;;;;;;;;5029160;28;20064;-73
2021/10/07 00:47:10;;;;;;;20.00;8.45;;;;;;;;;;5029349;28;20444;-74
2021/10/07 00:49:39;;;;;;;17.02;6.53;;;;;;;;;;5029091;28;20029;-74
2021/10/07 00:52:09;;;;;;;13.77;6.13;;;;;;;;;;5029388;28;20037;-73
2021/10/07 00:54:35;;;;;;;18.40;8.13;;;;;;;;;;5029375;28;20494;-73
2021/10/07 00:57:03;;;;;;;23.60;8.30;;;;;;;;;;5029027;28;20033;-73
2021/10/07 00:59:29;;;;;;;16.80;7.05;;;;;;;;;;5029196;28;20063;-74
2021/10/07 01:01:55;;;;;;;16.23;7.95;;;;;;;;;;5028973;28;20461;-75
2021/10/07 01:04:20;;;;;;;23.77;9.75;;;;;;;;;;5029570;28;20397;-74
2021/10/07 01:06:48;;;;;;;22.15;7.45;;;;;;;;;;5031148;28;20034;-73
2021/10/07 01:09:15;;;;;;;18.15;7.05;;;;;;;;;;5031942;28;20083;-71
2021/10/07 01:11:40;;;;;;;17.85;7.88;;;;;;;;;;5031135;28;20044;-73
2021/10/07 01:14:06;;;;;;;19.70;7.78;;;;;;;;;;5028793;28;20025;-70
2021/10/07 01:16:34;;;;;;;22.33;7.72;;;;;;;;;;5029117;28;20029;-72
2021/10/07 01:18:59;;;;;;;20.67;8.32;;;;;;;;;;5029570;28;20477;-72
2021/10/07 01:21:25;;;;;;;22.38;8.80;;;;;;;;;;5028436;28;20040;-73
2021/10/07 01:23:51;;;;;;;20.65;7.68;;;;;;;;;;5029723;28;20032;-72
2021/10/07 01:26:21;;;;;;;20.58;7.90;;;;;;;;;;5028024;28;20044;-72
2021/10/07 01:28:50;;;;;;;28.38;9.02;;;;;;;;;;5028432;28;20026;-72
2021/10/07 01:31:16;;;;;;;24.40;8.70;;;;;;;;;;5028639;28;20041;-73
2021/10/07 01:33:42;;;;;;;18.95;8.75;;;;;;;;;;5029361;28;20052;-71
2021/10/07 01:36:10;;;;;;;22.48;8.18;;;;;;;;;;5028523;28;20489;-76
2021/10/07 01:38:36;;;;;;;17.35;7.90;;;;;;;;;;5029686;28;20041;-78
2021/10/07 01:41:02;;;;;;;25.13;8.73;;;;;;;;;;5029936;28;20038;-74
2021/10/07 01:43:29;;;;;;;18.80;8.18;;;;;;;;;;5028341;28;20079;-74
2021/10/07 01:45:56;;;;;;;19.17;7.60;;;;;;;;;;5027908;28;20464;-73
2021/10/07 01:48:23;;;;;;;21.58;7.03;;;;;;;;;;5029209;28;20423;-73
2021/10/07 01:50:48;;;;;;;22.40;7.82;;;;;;;;;;5028109;28;20044;-74
2021/10/07 01:53:14;;;;;;;27.75;9.63;;;;;;;;;;5029801;28;20029;-72
2021/10/07 01:55:39;;;;;;;15.40;7.72;;;;;;;;;;5028493;28;20045;-73
2021/10/07 01:58:05;;;;;;;21.75;8.18;;;;;;;;;;5029550;28;20428;-74
2021/10/07 02:00:32;;;;;;;30.73;10.25;;;;;;;;;;5029383;28;20025;-73
2021/10/07 02:02:57;;;;;;;27.63;9.02;;;;;;;;;;5027640;28;20037;-74
2021/10/07 02:05:23;;;;;;;21.10;7.97;;;;;;;;;;5028361;28;20444;-73
2021/10/07 02:07:48;;;;;;;22.77;8.55;;;;;;;;;;5029416;28;20036;-72
2021/10/07 02:10:15;;;;;;;19.45;8.32;;;;;;;;;;5029581;28;20128;-73
2021/10/07 02:12:46;;;;;;;23.75;8.25;;;;;;;;;;5027894;28;20018;-73
2021/10/07 02:15:12;;;;;;;18.83;8.43;;;;;;;;;;5030474;28;20057;-72
2021/10/07 02:17:38;;;;;;;18.17;8.60;;;;;;;;;;5033606;28;20029;-73
2021/10/07 02:20:07;;;;;;;28.38;8.55;;;;;;;;;;5033478;28;20022;-72
2021/10/07 02:22:33;;;;;;;19.77;8.50;;;;;;;;;;5032908;28;20030;-74
2021/10/07 02:24:58;;;;;;;33.80;8.95;;;;;;;;;;5033267;28;20035;-73
2021/10/07 02:27:24;;;;;;;18.17;7.18;;;;;;;;;;5032248;28;20254;-74
2021/10/07 02:29:50;;;;;;;15.38;7.38;;;;;;;;;;5031770;28;20112;-77
2021/10/07 02:32:15;;;;;;;19.38;7.60;;;;;;;;;;5032009;28;20299;-72
2021/10/07 02:34:41;;;;;;;17.63;6.88;;;;;;;;;;5032813;28;20112;-72
2021/10/07 02:37:06;;;;;;;16.90;6.97;;;;;;;;;;5031822;28;20052;-72
2021/10/07 02:39:32;;;;;;;17.92;7.30;;;;;;;;;;5033409;28;20152;-73
2021/10/07 02:41:57;;;;;;;22.15;7.28;;;;;;;;;;5031731;28;20029;-72
2021/10/07 02:44:23;;;;;;;27.33;6.95;;;;;;;;;;5033213;28;20030;-71
2021/10/07 02:46:48;;;;;;;15.07;7.30;;;;;;;;;;5031485;28;20401;-72
2021/10/07 02:49:14;;;;;;;23.27;7.20;;;;;;;;;;5032945;28;20104;-73
2021/10/07 02:51:39;;;;;;;23.55;8.32;;;;;;;;;;5032617;28;20021;-71
2021/10/07 02:54:05;;;;;;;15.63;6.35;;;;;;;;;;5032999;28;20021;-72
2021/10/07 02:56:31;;;;;;;16.75;7.35;;;;;;;;;;5032844;28;20452;-73
2021/10/07 02:58:56;;;;;;;21.08;6.85;;;;;;;;;;5032640;28;20044;-73
2021/10/07 03:01:23;;;;;;;22.55;8.38;;;;;;;;;;5031282;28;20655;-73
2021/10/07 03:03:49;;;;;;;21.80;7.57;;;;;;;;;;5032684;28;20071;-73
2021/10/07 03:06:14;;;;;;;26.08;7.55;;;;;;;;;;5032607;28;20033;-71
2021/10/07 03:08:40;;;;;;;18.47;6.80;;;;;;;;;;5032426;28;20034;-74
2021/10/07 03:11:05;;;;;;;19.27;7.30;;;;;;;;;;5032553;28;20100;-73
2021/10/07 03:13:31;;;;;;;13.80;6.57;;;;;;;;;;5032519;28;20022;-73
2021/10/07 03:15:56;;;;;;;20.50;7.63;;;;;;;;;;5032625;28;20017;-74
2021/10/07 03:18:22;;;;;;;23.63;7.30;;;;;;;;;;5030968;28;20056;-73
2021/10/07 03:20:47;;;;;;;36.23;10.03;;;;;;;;;;5031893;28;20033;-73
2021/10/07 03:23:13;;;;;;;13.15;6.40;;;;;;;;;;5032353;28;20378;-74
2021/10/07 03:25:38;;;;;;;19.10;5.83;;;;;;;;;;5032098;28;20463;-74
2021/10/07 03:28:04;;;;;;;16.90;6.30;;;;;;;;;;5030593;28;20087;-74
2021/10/07 03:30:29;;;;;;;21.92;8.23;;;;;;;;;;5032077;28;20029;-73
2021/10/07 03:32:55;;;;;;;12.63;5.57;;;;;;;;;;5031961;28;20032;-74
2021/10/07 03:35:20;;;;;;;17.47;6.50;;;;;;;;;;5032093;28;20073;-79
2021/10/07 03:37:46;;;;;;;20.10;6.30;;;;;;;;;;5032193;28;20032;-76
2021/10/07 03:40:12;;;;;;;16.15;5.55;;;;;;;;;;5030868;28;20033;-76
2021/10/07 03:42:38;;;;;;;17.20;7.23;;;;;;;;;;5032655;28;20026;-77
2021/10/07 03:45:05;;;;;;;16.87;7.33;;;;;;;;;;5032100;28;20030;-77
2021/10/07 03:47:31;;;;;;;27.73;10.33;;;;;;;;;;5031141;28;20041;-76
2021/10/07 03:49:57;;;;;;;16.07;6.43;;;;;;;;;;5032220;28;20021;-78
2021/10/07 03:52:24;;;;;;;17.40;7.93;;;;;;;;;;5032451;28;20112;-77
2021/10/07 03:54:49;;;;;;;28.50;6.70;;;;;;;;;;5031741;28;20156;-77
2021/10/07 03:57:15;;;;;;;18.33;6.50;;;;;;;;;;5031750;28;20109;-73
2021/10/07 03:59:40;;;;;;;16.67;6.47;;;;;;;;;;5031669;28;20030;-78
2021/10/07 04:02:06;;;;;;;23.17;5.93;;;;;;;;;;5031463;28;20478;-76
2021/10/07 04:04:32;;;;;;;13.83;6.17;;;;;;;;;;5031654;28;20025;-77
2021/10/07 04:06:57;;;;;;;21.03;7.37;;;;;;;;;;5029936;28;20042;-76
2021/10/07 04:09:23;;;;;;;18.30;5.97;;;;;;;;;;5030166;28;20040;-77
2021/10/07 04:11:48;;;;;;;17.77;6.27;;;;;;;;;;5029731;28;20049;-77
2021/10/07 04:14:14;;;;;;;38.80;14.37;;;;;;;;;;5031301;28;20025;-76
2021/10/07 04:16:40;;;;;;;15.97;7.47;;;;;;;;;;5029868;28;20064;-76
2021/10/07 04:19:05;;;;;;;19.60;6.70;;;;;;;;;;5031159;28;20035;-74
2021/10/07 04:21:31;;;;;;;20.17;6.47;;;;;;;;;;5030318;28;20021;-77
2021/10/07 04:23:56;;;;;;;36.07;9.70;;;;;;;;;;5008916;28;20060;-76
2021/10/07 04:26:22;;;;;;;22.87;7.20;;;;;;;;;;5002676;28;20099;-76
2021/10/07 04:28:48;;;;;;;262.67;24.50;;;;;;;;;;5015506;28;20389;-77
2021/10/07 04:31:13;;;;;;;16.03;6.63;;;;;;;;;;5014531;28;20527;-77
2021/10/07 04:33:39;;;;;;;21.63;7.97;;;;;;;;;;5011842;28;20026;-78
2021/10/07 04:36:04;;;;;;;16.67;6.03;;;;;;;;;;5010552;28;20053;-75
2021/10/07 04:38:30;;;;;;;23.50;7.53;;;;;;;;;;5025191;28;20068;-77
2021/10/07 04:40:56;;;;;;;19.93;7.33;;;;;;;;;;5028303;28;20060;-76
2021/10/07 04:43:21;;;;;;;26.10;8.43;;;;;;;;;;5018019;28;20030;-77
2021/10/07 04:45:47;;;;;;;27.10;7.90;;;;;;;;;;5010749;28;20026;-77
2021/10/07 04:48:13;;;;;;;21.33;7.90;;;;;;;;;;5011696;28;20040;-77
2021/10/07 04:50:38;;;;;;;14.88;5.90;;;;;;;;;;5013163;28;20208;-78
2021/10/07 04:53:05;;;;;;;19.17;6.72;;;;;;;;;;5014084;28;20026;-78
2021/10/07 04:55:31;;;;;;;18.10;9.13;;;;;;;;;;5011054;28;20041;-77
2021/10/07 04:57:56;;;;;;;14.23;7.13;;;;;;;;;;5010117;28;20301;-77
2021/10/07 05:00:22;;;;;;;26.37;7.83;;;;;;;;;;5010360;28;20040;-77
2021/10/07 05:02:47;;;;;;;17.17;6.80;;;;;;;;;;5009769;28;20025;-77
2021/10/07 05:05:13;;;;;;;21.33;10.27;;;;;;;;;;5010333;28;20038;-76
2021/10/07 05:07:39;;;;;;;17.30;7.63;;;;;;;;;;5010187;28;20099;-77
2021/10/07 05:10:11;;;;;;;21.87;9.17;;;;;;;;;;5010055;28;20612;-77
2021/10/07 05:12:40;;;;;;;34.67;8.68;;;;;;;;;;5010076;28;20392;-78
2021/10/07 05:15:08;;;;;;;17.90;7.13;;;;;;;;;;5010725;28;20026;-78
2021/10/07 05:17:34;;;;;;;24.43;8.03;;;;;;;;;;5017763;28;20029;-75
2021/10/07 05:19:59;;;;;;;31.20;10.00;;;;;;;;;;5025443;28;20409;-77
2021/10/07 05:22:25;;;;;;;22.80;8.87;;;;;;;;;;5010714;28;20030;-77
2021/10/07 05:24:51;;;;;;;19.23;8.07;;;;;;;;;;5023371;28;20034;-76
2021/10/07 05:27:16;;;;;;;20.35;7.93;;;;;;;;;;5024885;28;20034;-76
2021/10/07 05:29:42;;;;;;;21.67;7.67;;;;;;;;;;5010613;28;20037;-77
2021/10/07 05:32:07;;;;;;;15.87;7.57;;;;;;;;;;5008199;28;20040;-75
2021/10/07 05:34:33;;;;;;;15.53;6.90;;;;;;;;;;5018042;28;20036;-78
2021/10/07 05:37:00;;;;;;;20.23;7.13;;;;;;;;;;5015349;28;20133;-77
2021/10/07 05:39:26;;;;;;;23.43;9.80;;;;;;;;;;5009270;28;20080;-78
2021/10/07 05:41:52;;;;;;;27.33;12.33;;;;;;;;;;5017077;28;20025;-76
2021/10/07 05:44:17;;;;;;;18.53;8.27;;;;;;;;;;5028762;28;20426;-74
2021/10/07 05:46:43;;;;;;;16.40;7.33;;;;;;;;;;5025325;28;20470;-75
2021/10/07 05:49:09;;;;;;;20.73;10.40;;;;;;;;;;5024922;28;20041;-77
2021/10/07 05:51:35;;;;;;;17.97;7.30;;;;;;;;;;5014844;28;20029;-76
2021/10/07 05:54:00;;;;;;;29.30;8.90;;;;;;;;;;5012689;28;20026;-76
2021/10/07 05:56:26;;;;;;;40.77;8.47;;;;;;;;;;5030911;28;20095;-76
2021/10/07 05:58:52;;;;;;;21.42;12.18;;;;;;;;;;5025525;28;20029;-78
2021/10/07 06:01:18;;;;;;;21.33;8.40;;;;;;;;;;5022877;28;20036;-78
2021/10/07 06:03:43;;;;;;;42.42;10.77;;;;;;;;;;5032273;28;20512;-78
2021/10/07 06:06:10;;;;;;;35.92;12.38;;;;;;;;;;5023350;28;20041;-77
2021/10/07 06:08:36;;;;;;;14.82;5.63;;;;;;;;;;5025320;28;20040;-78
2021/10/07 06:11:02;;;;;;;54.45;7.63;;;;;;;;;;5029434;28;20484;-78
2021/10/07 06:13:28;;;;;;;20.40;7.32;;;;;;;;;;5024760;28;20563;-77
2021/10/07 06:15:54;;;;;;;18.63;6.20;;;;;;;;;;5015612;28;20060;-75
2021/10/07 06:18:21;;;;;;;17.27;5.70;;;;;;;;;;5023833;28;20041;-78
2021/10/07 06:20:47;;;;;;;23.40;6.90;;;;;;;;;;5012620;28;20069;-74
2021/10/07 06:23:12;;;;;;;15.80;5.47;;;;;;;;;;5016414;28;20109;-77
2021/10/07 06:25:38;;;;;;;14.43;6.75;;;;;;;;;;5021784;28;20485;-75
2021/10/07 06:28:07;;;;;;;17.20;7.32;;;;;;;;;;5022775;28;20075;-78
2021/10/07 06:30:33;;;;;;;14.70;5.60;;;;;;;;;;5024774;28;20045;-78
2021/10/07 06:32:59;;;;;;;10.35;5.40;;;;;;;;;;5013963;28;20555;-76
2021/10/07 06:35:26;;;;;;;23.58;7.28;;;;;;;;;;5021839;28;20437;-77
2021/10/07 06:37:52;;;;;;;17.23;6.00;;;;;;;;;;5018723;28;20053;-78
2021/10/07 06:40:17;;;;;;;15.80;6.93;;;;;;;;;;5019333;28;20029;-77
2021/10/07 06:42:43;;;;;;;12.93;5.88;;;;;;;;;;5016749;28;20034;-76
2021/10/07 06:45:09;;;;;;;15.75;5.72;;;;;;;;;;5017679;28;20470;-76
2021/10/07 06:47:36;;;;;;;16.02;6.57;;;;;;;;;;5015091;28;20025;-77
2021/10/07 06:50:05;;;;;;;14.52;6.80;;;;;;;;;;5022475;28;20146;-79
2021/10/07 06:52:31;;;;;;;18.20;6.45;;;;;;;;;;5028659;28;20045;-78
2021/10/07 06:54:56;;;;;;;16.40;5.50;;;;;;;;;;5019957;28;20113;-78
2021/10/07 06:57:22;;;;;;;14.15;5.90;;;;;;;;;;5031642;28;20021;-78
2021/10/07 06:59:48;;;;;;;18.38;6.57;;;;;;;;;;5013928;28;20026;-79
2021/10/07 07:02:14;;;;;;;14.50;6.10;;;;;;;;;;5036549;28;20335;-77
2021/10/07 07:04:40;;;;;;;24.40;6.88;;;;;;;;;;5034692;28;20571;-75
2021/10/07 07:07:05;;;;;;;21.33;6.93;;;;;;;;;;5024530;28;20076;-77
2021/10/07 07:09:31;;;;;;;31.60;6.43;;;;;;;;;;5029317;28;20064;-77
2021/10/07 07:11:58;;;;;;;18.17;6.57;;;;;;;;;;5023026;28;20163;-77
2021/10/07 07:14:23;;;;;;;22.60;7.13;;;;;;;;;;5023981;28;20034;-76
2021/10/07 07:16:50;;;;;;;15.27;5.88;;;;;;;;;;5023074;28;20041;-76
2021/10/07 07:19:16;;;;;;;13.18;6.10;;;;;;;;;;5022061;28;20030;-79
2021/10/07 07:21:41;;;;;;;24.25;5.95;;;;;;;;;;5032833;28;20498;-78
2021/10/07 07:24:07;;;;;;;12.90;6.28;;;;;;;;;;5025542;28;20064;-77
2021/10/07 07:26:35;;;;;;;17.00;6.72;;;;;;;;;;5028033;28;20126;-75
2021/10/07 07:29:01;;;;;;;16.98;6.35;;;;;;;;;;5015092;28;20144;-76
2021/10/07 07:31:28;;;;;;;17.63;6.50;;;;;;;;;;5024291;28;20077;-78
2021/10/07 07:33:55;;;;;;;22.27;8.05;;;;;;;;;;5015978;28;20029;-78
2021/10/07 07:36:23;;;;;;;19.98;6.78;;;;;;;;;;5016106;28;20052;-76
2021/10/07 07:38:53;;;;;;;11.32;6.00;;;;;;;;;;5010506;28;20033;-79
2021/10/07 07:41:18;;;;;;;16.25;6.40;;;;;;;;;;5022205;28;20047;-75
2021/10/07 07:43:45;;;;;;;12.88;6.32;;;;;;;;;;5018812;28;20025;-76
2021/10/07 07:46:11;;;;;;;14.10;6.10;;;;;;;;;;5022938;28;20029;-80
2021/10/07 07:48:36;;;;;;;22.88;8.20;;;;;;;;;;5016408;28;20033;-75
2021/10/07 07:51:03;;;;;;;14.13;5.85;;;;;;;;;;5019188;28;20033;-78
2021/10/07 07:53:29;;;;;;;18.10;8.02;;;;;;;;;;5023972;28;20071;-77
2021/10/07 07:55:56;;;;;;;13.23;5.97;;;;;;;;;;5023713;28;20067;-77
2021/10/07 07:58:23;;;;;;;20.75;7.40;;;;;;;;;;5026760;28;20037;-78
2021/10/07 08:00:49;;;;;;;16.45;8.65;;;;;;;;;;5019249;28;20498;-79
2021/10/07 08:03:15;;;;;;;20.20;6.78;;;;;;;;;;5021958;28;20041;-79
2021/10/07 08:05:41;;;;;;;25.55;8.30;;;;;;;;;;5017329;28;20048;-77
2021/10/07 08:08:06;;;;;;;17.48;6.78;;;;;;;;;;5018584;28;20048;-78
2021/10/07 08:10:32;;;;;;;21.92;7.40;;;;;;;;;;5018189;28;20079;-77
2021/10/07 08:12:58;;;;;;;13.02;6.18;;;;;;;;;;5024041;28;20489;-79
2021/10/07 08:15:25;;;;;;;21.75;8.90;;;;;;;;;;5017550;28;20482;-78
2021/10/07 08:17:51;;;;;;;24.42;8.43;;;;;;;;;;5023702;28;20037;-77
2021/10/07 08:20:17;;;;;;;17.30;6.53;;;;;;;;;;5015129;28;20101;-78
2021/10/07 08:22:45;;;;;;;19.98;6.93;;;;;;;;;;5017236;28;20215;-78
2021/10/07 08:25:11;;;;;;;22.58;8.80;;;;;;;;;;5005598;28;20037;-77
2021/10/07 08:27:39;;;;;;;25.80;7.43;;;;;;;;;;5020837;28;20048;-78
2021/10/07 08:30:11;;;;;;;17.48;8.02;;;;;;;;;;5019379;28;20062;-78
2021/10/07 08:32:38;;;;;;;30.48;7.68;;;;;;;;;;5030064;28;20033;-77
2021/10/07 08:35:05;;;;;;;28.38;7.55;;;;;;;;;;5018216;28;20048;-77
2021/10/07 08:37:33;;;;;;;23.33;6.57;;;;;;;;;;5017366;28;20388;-76
2021/10/07 08:40:00;;;;;;;16.95;6.22;;;;;;;;;;5018907;28;20030;-77
2021/10/07 08:42:27;;;;;;;21.27;8.27;;;;;;;;;;5019199;28;20390;-77
2021/10/07 08:44:53;;;;;;;18.38;7.95;;;;;;;;;;5014226;28;20035;-75
2021/10/07 08:47:19;;;;;;;20.63;7.53;;;;;;;;;;5020647;28;20034;-77
2021/10/07 08:49:48;;;;;;;20.45;5.88;;;;;;;;;;5027355;28;20481;-75
2021/10/07 08:52:14;;;;;;;16.30;6.50;;;;;;;;;;5015684;28;20034;-79
2021/10/07 08:54:41;;;;;;;10.93;5.25;;;;;;;;;;5029020;28;20029;-76
2021/10/07 08:57:07;;;;;;;17.75;7.65;;;;;;;;;;5027095;28;20068;-82
2021/10/07 08:59:37;;;;;;;18.75;6.22;;;;;;;;;;5024514;28;20088;-77
2021/10/07 09:02:07;;;;;;;16.63;6.25;;;;;;;;;;5016111;28;20104;-78
2021/10/07 09:04:34;;;;;;;21.70;6.65;;;;;;;;;;5019831;28;20379;-78
2021/10/07 09:07:04;;;;;;;15.75;7.43;;;;;;;;;;5021804;28;20042;-78
2021/10/07 09:09:30;;;;;;;27.75;8.02;;;;;;;;;;5020913;28;20118;-76
2021/10/07 09:12:04;;;;;;;14.55;5.47;;;;;;;;;;5013213;28;20422;-77
2021/10/07 09:14:35;;;;;;;14.07;5.72;;;;;;;;;;5025803;28;20034;-79
2021/10/07 09:17:03;;;;;;;16.83;6.78;;;;;;;;;;5020127;28;20034;-76
2021/10/07 09:19:36;;;;;;;16.75;7.00;;;;;;;;;;5024002;28;20124;-76
2021/10/07 09:22:20;;;;;;;12.13;6.03;;;;;;;;;;5016520;28;20155;-78
2021/10/07 09:24:49;;;;;;;22.65;7.28;;;;;;;;;;5022023;28;20255;-75
2021/10/07 09:27:26;;;;;;;18.75;6.63;;;;;;;;;;5015972;28;20068;-77
2021/10/07 09:29:56;;;;;;;22.20;7.53;;;;;;;;;;5011049;28;20032;-78
2021/10/07 09:32:39;;;;;;;33.33;11.73;;;;;;;;;;5022489;28;20033;-77
2021/10/07 09:35:11;;;;;;;20.85;8.13;;;;;;;;;;5028862;28;20068;-78
2021/10/07 09:37:38;;;;;;;;;;;;;;;;;;5015970;28;20438;-78
2021/10/07 09:40:11;;;;;;;19.65;7.95;;;;;;;;;;5018169;28;20009;-77
2021/10/07 09:42:43;;;;;;;13.75;6.60;;;;;;;;;;5020955;28;20030;-78
2021/10/07 09:45:20;;;;;;;17.45;6.38;;;;;;;;;;5016037;28;20099;-76
2021/10/07 09:47:52;;;;;;;22.88;8.85;;;;;;;;;;5016047;28;20710;-78
2021/10/07 09:50:22;;;;;;;16.73;7.10;;;;;;;;;;5024360;28;20106;-77
2021/10/07 09:52:56;;;;;;;20.10;8.45;;;;;;;;;;5014252;28;20064;-77
2021/10/07 09:55:23;;;;;;;15.27;6.82;;;;;;;;;;5010775;28;20052;-77
2021/10/07 09:57:56;;;;;;;22.73;9.80;;;;;;;;;;5016966;28;20037;-78
2021/10/07 10:00:26;;;;;;;16.63;6.68;;;;;;;;;;5012628;28;20516;-79
2021/10/07 10:02:54;;;;;;;13.23;7.13;;;;;;;;;;5016018;28;20481;-77
2021/10/07 10:05:19;;;;;;;19.88;7.53;;;;;;;;;;5013327;28;20045;-78
2021/10/07 10:07:45;;;;;;;23.90;8.00;;;;;;;;;;5009645;28;20033;-77
2021/10/07 10:10:13;;;;;;;27.23;9.07;;;;;;;;;;5015569;28;20049;-78
2021/10/07 10:12:39;;;;;;;27.55;7.75;;;;;;;;;;5020339;28;20417;-75
2021/10/07 10:15:06;;;;;;;20.35;8.02;;;;;;;;;;5027735;28;20036;-76
2021/10/07 10:17:34;;;;;;;23.80;9.02;;;;;;;;;;5025030;28;20044;-76
2021/10/07 10:20:01;;;;;;;20.42;7.00;;;;;;;;;;5018084;28;20029;-79
2021/10/07 10:22:28;;;;;;;16.90;7.95;;;;;;;;;;5014231;28;20036;-78
2021/10/07 10:24:59;;;;;;;19.25;7.57;;;;;;;;;;5037629;28;20536;-78
2021/10/07 10:27:25;;;;;;;20.55;7.57;;;;;;;;;;5014783;28;20034;-77
2021/10/07 10:30:26;;;;;;;13.13;7.68;;;;;;;;;;5012520;28;20625;-76
2021/10/07 10:32:53;;;;;;;21.80;8.02;;;;;;;;;;5015287;28;20107;-76
2021/10/07 10:35:33;;;;;;;22.90;9.68;;;;;;;;;;5010663;28;20061;-78
2021/10/07 10:38:00;;;;;;;24.95;7.57;;;;;;;;;;5026127;28;20044;-76
2021/10/07 10:40:26;;;;;;;17.02;7.20;;;;;;;;;;5020549;28;20030;-77
2021/10/07 10:43:19;;;;;;;78.03;30.13;;;;;;;;;;5018282;28;20052;-77
2021/10/07 10:46:05;;;;;;;22.75;8.80;;;;;;;;;;5026539;28;20026;-75
2021/10/07 10:48:44;;;;;;;24.88;8.20;;;;;;;;;;5028729;28;20565;-76
2021/10/07 10:51:14;;;;;;;19.00;8.18;;;;;;;;;;5028542;28;20750;-78
2021/10/07 10:54:03;;;;;;;13.35;7.22;;;;;;;;;;5014466;28;20029;-77
2021/10/07 10:56:33;;;;;;;15.23;8.45;;;;;;;;;;5027492;28;20106;-77
2021/10/07 10:59:19;;;;;;;17.13;7.65;;;;;;;;;;5029477;28;20033;-76
2021/10/07 11:02:05;;;;;;;16.25;6.97;;;;;;;;;;5022969;28;20106;-78
2021/10/07 11:05:10;;;;;;;11.52;5.68;;;;;;;;;;5028654;28;20030;-77
2021/10/07 11:07:36;;;;;;;24.88;7.32;;;;;;;;;;5008788;28;20099;-77
2021/10/07 11:10:07;;;;;;;19.35;7.25;;;;;;;;;;5014883;28;20462;-77
2021/10/07 11:12:53;;;;;;;;;;;;;;;;;;5025729;28;20025;-74
2021/10/07 11:15:21;;;;;;;18.77;6.25;;;;;;;;;;5018781;28;19921;-78
2021/10/07 11:17:49;;;;;;;39.30;13.52;;;;;;;;;;5021987;28;20120;-75
2021/10/07 11:20:22;;;;;;;17.08;7.95;;;;;;;;;;5021931;28;20070;-75
2021/10/07 11:23:00;;;;;;;29.33;12.90;;;;;;;;;;5018487;28;20025;-77
2021/10/07 11:25:27;;;;;;;20.25;9.25;;;;;;;;;;5015213;28;20061;-74
2021/10/07 11:27:53;;;;;;;15.23;6.72;;;;;;;;;;5020856;28;20068;-75
2021/10/07 11:30:20;;;;;;;18.38;7.57;;;;;;;;;;5022006;28;20080;-76
2021/10/07 11:32:49;;;;;;;11.85;7.10;;;;;;;;;;5025753;28;20377;-75
2021/10/07 11:35:17;;;;;;;22.70;8.00;;;;;;;;;;5021801;28;20053;-76
2021/10/07 11:37:56;;;;;;;14.55;7.75;;;;;;;;;;5021023;28;20116;-76
2021/10/07 11:40:22;;;;;;;19.13;8.27;;;;;;;;;;5021314;28;20131;-76
2021/10/07 11:42:49;;;;;;;15.27;7.13;;;;;;;;;;5026174;28;20199;-79
2021/10/07 11:45:30;;;;;;;17.08;7.47;;;;;;;;;;5023062;28;20132;-76
2021/10/07 11:47:57;;;;;;;17.13;7.28;;;;;;;;;;5023504;28;20033;-76
2021/10/07 11:50:25;;;;;;;19.38;7.10;;;;;;;;;;5015897;28;20152;-78
2021/10/07 11:52:53;;;;;;;21.15;10.02;;;;;;;;;;5025746;28;21499;-76
2021/10/07 11:55:20;;;;;;;15.98;7.50;;;;;;;;;;5021717;28;20041;-77
2021/10/07 11:57:54;;;;;;;26.30;8.80;;;;;;;;;;5023991;28;20045;-76
2021/10/07 12:00:53;;;;;;;21.40;9.00;;;;;;;;;;5018635;28;20171;-76
2021/10/07 12:03:18;;;;;;;26.67;8.77;;;;;;;;;;5017850;28;20042;-76
2021/10/07 12:05:46;;;;;;;23.23;8.48;;;;;;;;;;5026657;28;20060;-76
2021/10/07 12:08:16;;;;;;;21.30;8.55;;;;;;;;;;5009844;28;20033;-77
2021/10/07 12:10:45;;;;;;;14.05;6.47;;;;;;;;;;5015178;28;20041;-76
2021/10/07 12:13:24;;;;;;;20.52;9.05;;;;;;;;;;5028998;28;20017;-76
2021/10/07 12:16:03;;;;;;;18.55;7.40;;;;;;;;;;5015938;28;20033;-75
2021/10/07 12:18:34;;;;;;;13.52;6.53;;;;;;;;;;5015743;28;20176;-75
2021/10/07 12:21:30;;;;;;;20.58;7.03;;;;;;;;;;5015699;28;20040;-76
2021/10/07 12:23:59;;;;;;;16.77;7.80;;;;;;;;;;5018548;28;20140;-77
2021/10/07 12:26:48;;;;;;;23.00;8.70;;;;;;;;;;5016424;28;20425;-75
2021/10/07 12:29:41;;;;;;;42.65;16.95;;;;;;;;;;5020003;28;20037;-75
2021/10/07 12:32:15;;;;;;;16.92;8.05;;;;;;;;;;5016653;28;20045;-76
2021/10/07 12:34:44;;;;;;;12.55;7.70;;;;;;;;;;5020916;28;20026;-78
2021/10/07 12:37:11;;;;;;;21.40;8.57;;;;;;;;;;5021911;28;20125;-78
2021/10/07 12:39:42;;;;;;;18.38;8.20;;;;;;;;;;5022003;28;20041;-75
2021/10/07 12:42:11;;;;;;;28.53;11.00;;;;;;;;;;5018812;28;20100;-77
2021/10/07 12:44:51;;;;;;;15.40;7.55;;;;;;;;;;5012446;28;20026;-75
2021/10/07 12:47:28;;;;;;;14.23;7.10;;;;;;;;;;5021403;28;20025;-75
2021/10/07 12:49:59;;;;;;;19.67;7.72;;;;;;;;;;5020030;28;20038;-77
2021/10/07 12:52:29;;;;;;;21.85;7.30;;;;;;;;;;5018375;28;20021;-77
2021/10/07 12:55:00;;;;;;;13.82;7.47;;;;;;;;;;5009282;28;20128;-76
2021/10/07 12:57:38;;;;;;;15.60;8.27;;;;;;;;;;5024973;28;20025;-76
2021/10/07 13:00:07;;;;;;;17.98;7.90;;;;;;;;;;5020129;28;20133;-75
2021/10/07 13:02:33;;;;;;;15.10;8.00;;;;;;;;;;5022905;28;20494;-77
2021/10/07 13:05:36;;;;;;;19.20;9.52;;;;;;;;;;5024583;28;20030;-74
2021/10/07 13:08:06;;;;;;;13.50;7.60;;;;;;;;;;4986319;28;20044;-77
2021/10/07 13:10:34;;;;;;;22.05;8.98;;;;;;;;;;5006699;28;20033;-76
2021/10/07 13:13:00;;;;;;;18.10;7.05;;;;;;;;;;4999400;28;20442;-76
2021/10/07 13:15:26;;;;;;;10.80;6.93;;;;;;;;;;5016812;28;20155;-76
2021/10/07 13:17:52;;;;;;;15.55;7.55;;;;;;;;;;5019562;28;20164;-78
2021/10/07 13:20:22;;;;;;;14.60;7.43;;;;;;;;;;5021127;28;20061;-78
2021/10/07 13:22:48;;;;;;;19.85;8.02;;;;;;;;;;5023406;28;20068;-76
2021/10/07 13:25:15;;;;;;;18.10;7.40;;;;;;;;;;5016621;28;20044;-76
2021/10/07 13:27:43;;;;;;;13.55;6.53;;;;;;;;;;5019913;28;20064;-76
2021/10/07 13:30:14;;;;;;;29.65;7.95;;;;;;;;;;5020978;28;20037;-78
2021/10/07 13:32:45;;;;;;;13.38;5.43;;;;;;;;;;5013142;28;20068;-76
2021/10/07 13:35:12;;;;;;;14.48;6.22;;;;;;;;;;5024732;28;20041;-77
2021/10/07 13:37:38;;;;;;;29.38;9.48;;;;;;;;;;5018399;28;20034;-77
2021/10/07 13:40:05;;;;;;;14.98;7.40;;;;;;;;;;5013600;28;20041;-79
2021/10/07 13:42:32;;;;;;;21.10;7.80;;;;;;;;;;5020752;28;20071;-75
2021/10/07 13:44:57;;;;;;;18.52;8.18;;;;;;;;;;5009926;28;20022;-76
2021/10/07 13:47:23;;;;;;;15.68;6.97;;;;;;;;;;5020960;28;20030;-76
2021/10/07 13:49:51;;;;;;;18.65;8.85;;;;;;;;;;5017443;28;20029;-77
2021/10/07 13:52:19;;;;;;;16.10;7.30;;;;;;;;;;5021236;28;20030;-77
2021/10/07 13:54:46;;;;;;;20.42;7.53;;;;;;;;;;5018868;28;20030;-74
2021/10/07 13:57:13;;;;;;;12.75;5.78;;;;;;;;;;5016618;28;20041;-78
2021/10/07 13:59:38;;;;;;;12.05;6.90;;;;;;;;;;5017825;28;20083;-79
2021/10/07 14:02:04;;;;;;;12.95;7.00;;;;;;;;;;5027783;28;20029;-78
2021/10/07 14:04:30;;;;;;;11.48;6.50;;;;;;;;;;5017051;28;20504;-77
2021/10/07 14:06:55;;;;;;;12.32;7.28;;;;;;;;;;5014944;28;20035;-77
2021/10/07 14:09:21;;;;;;;11.00;6.57;;;;;;;;;;5017705;28;20029;-78
2021/10/07 14:11:46;;;;;;;34.63;13.95;;;;;;;;;;5021292;28;20131;-76
2021/10/07 14:14:12;;;;;;;17.88;7.63;;;;;;;;;;5018500;28;20021;-76
2021/10/07 14:16:40;;;;;;;14.57;7.43;;;;;;;;;;5022356;28;20136;-77
2021/10/07 14:19:07;;;;;;;14.48;8.13;;;;;;;;;;5015792;28;20030;-77
2021/10/07 14:21:33;;;;;;;15.90;9.82;;;;;;;;;;5018402;28;20109;-77
2021/10/07 14:23:58;;;;;;;12.65;7.38;;;;;;;;;;5013238;28;20153;-77
2021/10/07 14:26:24;;;;;;;11.77;6.55;;;;;;;;;;5020313;28;20079;-77
2021/10/07 14:28:49;;;;;;;14.68;7.70;;;;;;;;;;5022608;28;20022;-78
2021/10/07 14:31:15;;;;;;;17.27;8.73;;;;;;;;;;5025887;28;20048;-77
2021/10/07 14:33:40;;;;;;;12.45;6.43;;;;;;;;;;5019908;28;20017;-75
2021/10/07 14:36:06;;;;;;;16.65;8.10;;;;;;;;;;5023318;28;20524;-77
2021/10/07 14:38:31;;;;;;;14.13;6.55;;;;;;;;;;5015088;28;20103;-76
2021/10/07 14:40:57;;;;;;;13.65;8.55;;;;;;;;;;5022108;28;20051;-77